Ortega (1243) Station Data

Red Flag Warning: No
Fire Weather Zone: 242
SDGE Region: Orange County
Lat/Lon: 33.57/-117.513

Observations

Time Wind Speed/Gust Temp(F) RH Fuel Moist Fuel Temp(F) Dewpt(F) Tmax(F) Tmin(F) Accum Precip 10-min Precip SL Press(mb)
6/27 5:00pm 237 7 G 12 85° 24% - - 44° 93.2° 70.9° - - 1013.0
6/27 4:50pm 241 6 G 10 86° 22% - - 42° 93.2° 70.9° - - 1013.0
6/27 4:40pm 233 7 G 11 86° 20% - - 40° 93.2° 70.9° - - 1013.0
6/27 4:30pm 236 7 G 11 87° 18% - - 38° 93.2° 70.9° - - 1013.0
6/27 4:20pm 239 7 G 12 87° 17% - - 36° 93.2° 70.9° - - 1013.0
6/27 4:10pm 234 8 G 12 87° 15% - - 34° 93.2° 70.9° - - 1013.0
6/27 4:00pm 234 7 G 13 87° 17% - - 37° 93.2° 70.9° - - 1013.0
6/27 3:50pm 237 8 G 13 88° 17% - - 37° 93.2° 70.9° - - 1013.0
6/27 3:40pm 233 7 G 11 89° 15% - - 35° 93.2° 70.9° - - 1013.0
6/27 3:30pm 231 7 G 13 90° 13% - - 33° 93.2° 70.9° - - 1013.0
6/27 3:20pm 237 7 G 14 90° 13% - - 33° 93.2° 70.9° - - 1013.0
6/27 3:10pm 230 6 G 13 90° 13% - - 33° 93.2° 70.9° - - 1013.0
6/27 3:00pm 225 6 G 10 90° 13% - - 33° 93.2° 70.9° - - 1013.0
6/27 2:50pm 227 6 G 12 90° 14% - - 34° 93.2° 70.9° - - 1013.0
6/27 2:40pm 227 6 G 11 90° 14% - - 34° 93.2° 70.9° - - 1013.0
6/27 2:30pm 233 7 G 12 89° 14% - - 34° 93.2° 70.9° - - 1013.0
6/27 2:20pm 230 7 G 13 89° 14% - - 34° 93.2° 70.9° - - 1014.0
6/27 2:10pm 239 8 G 14 88° 16% - - 35° 93.2° 70.9° - - 1014.0
6/27 2:00pm 241 7 G 12 88° 16% - - 37° 93.2° 70.9° - - 1014.0
6/27 1:50pm 247 8 G 14 89° 16% - - 37° 93.2° 70.9° - - 1014.0
6/27 1:40pm 235 7 G 13 90° 14% - - 34° 93.2° 70.9° - - 1014.0
6/27 1:30pm 229 7 G 14 90° 14% - - 34° 93.2° 70.9° - - 1014.0
6/27 1:20pm 227 7 G 11 90° 14% - - 34° 93.2° 70.9° - - 1014.0
6/27 1:10pm 222 6 G 12 90° 15% - - 36° 93.2° 70.9° - - 1014.0
6/27 1:00pm 232 9 G 15 90° 18% - - 40° 93.2° 70.9° - - 1014.0
6/27 12:50pm 229 9 G 14 91° 19% - - 42° 93.2° 70.9° - - 1013.0
6/27 12:40pm 234 7 G 12 92° 14% - - 36° 93.2° 70.9° - - 1013.0
6/27 12:30pm 229 5 G 13 93° 13% - - 35° 93.2° 70.9° - - 1013.0
6/27 12:20pm 233 5 G 10 92° 13% - - 34° 92.6° 70.9° - - 1013.0
6/27 12:10pm 242 4 G 9 92° 13% - - 34° 92.2° 70.9° - - 1013.0
6/27 12:00pm 237 4 G 9 91° 14% - - 35° 91.6° 70.9° - - 1014.0
6/27 11:50am 243 4 G 9 90° 14% - - 35° 91.1° 70.9° - - 1014.0
6/27 11:40am 234 5 G 11 89° 15% - - 36° 90.2° 70.9° - - 1014.0
6/27 11:30am 224 4 G 9 89° 15% - - 36° 90.2° 70.9° - - 1014.0
6/27 11:20am 241 3 G 10 88° 17% - - 38° 89° 70.9° - - 1014.0
6/27 11:10am 244 4 G 7 87° 17% - - 37° 87.9° 70.9° - - 1014.0
6/27 11:00am 259 5 G 8 87° 19% - - 39° 87.5° 70.9° - - 1014.0
6/27 10:50am 233 4 G 9 87° 19% - - 40° 87.5° 70.9° - - 1014.0
6/27 10:40am 227 4 G 8 86° 20% - - 41° 86.5° 70.9° - - 1014.0
6/27 10:30am 237 4 G 8 85° 20% - - 40° 85.9° 70.9° - - 1015.0
6/27 10:20am 243 5 G 10 84° 20% - - 39° 85.1° 70.9° - - 1015.0
6/27 10:10am 239 4 G 8 84° 19% - - 37° 84.7° 70.9° - - 1015.0
6/27 10:00am 243 6 G 10 83° 18% - - 35° 84.7° 70.9° - - 1015.0
6/27 9:50am 242 6 G 10 83° 17% - - 34° 84.7° 70.9° - - 1015.0
6/27 9:40am 242 6 G 9 83° 16% - - 32° 84.7° 70.9° - - 1015.0
6/27 9:30am 229 4 G 7 84° 14% - - 30° 84.7° 70.9° - - 1014.0
6/27 9:20am 236 4 G 6 83° 15% - - 30° 84.7° 70.9° - - 1014.0
6/27 9:10am 240 4 G 6 83° 15% - - 30° 84.7° 70.9° - - 1014.0
6/27 8:50am 184 2 G 4 83° 15% - - 30° 84.2° 70.9° - - 1014.0
6/27 8:30am 143 1 G 2 81° 17% - - 32° 84.2° 70.9° - - 1015.0
6/27 8:20am 134 2 G 3 83° 15% - - 30° 84.2° 70.9° - - 1014.0
6/27 8:10am 92 1 G 3 84° 12% - - 25° 84° 70.9° - - 1014.0
6/27 8:00am 57 2 G 5 82° 12% - - 25° 83° 70.9° - - 1014.0
6/27 7:50am 54 3 G 5 80° 13% - - 26° 81.5° 70.9° - - 1014.0
6/27 7:40am 52 5 G 7 79° 14% - - 26° 80.6° 70.9° - - 1014.0
6/27 7:30am 52 5 G 8 78° 14% - - 26° 80.6° 70.9° - - 1014.0
6/27 7:20am 52 6 G 8 77° 15% - - 26° 80.6° 70.9° - - 1014.0
6/27 7:10am 49 7 G 9 75° 17% - - 27° 80.6° 70.9° - - 1014.0
6/27 7:00am 49 7 G 9 74° 17% - - 27° 80.6° 70.9° - - 1014.0
6/27 6:50am 48 8 G 10 74° 18% - - 27° 80.6° 70.9° - - 1014.0
6/27 6:40am 49 7 G 10 75° 16% - - 26° 80.6° 70.9° - - 1014.0
6/27 6:30am 52 7 G 10 75° 16% - - 25° 80.6° 70.9° - - 1014.0
6/27 6:20am 50 8 G 10 73° 17% - - 26° 80.6° 70.9° - - 1014.0
6/27 6:10am 49 8 G 11 72° 18% - - 26° 80.6° 70.9° - - 1014.0
6/27 6:00am 48 7 G 10 73° 17% - - 26° 80.6° 70.9° - - 1014.0
6/27 5:50am 49 8 G 11 73° 17% - - 25° 80.6° 70.9° - - 1014.0
6/27 5:40am 51 8 G 10 73° 17% - - 25° 80.6° 70.9° - - 1014.0
6/27 5:30am 48 8 G 10 74° 16% - - 25° 80.6° 70.9° - - 1014.0
6/27 5:20am 47 7 G 10 73° 17% - - 26° 80.6° 70.9° - - 1014.0
6/27 5:10am 46 7 G 10 72° 18% - - 26° 80.6° 70.9° - - 1014.0
6/27 5:00am 51 7 G 10 71° 19% - - 26° 80.6° 71.1° - - 1014.0
6/27 4:50am 49 7 G 10 72° 18% - - 26° 80.6° 71.2° - - 1014.0
6/27 4:40am 48 7 G 9 74° 16% - - 25° 80.6° 71.9° - - 1014.0
6/27 4:30am 45 6 G 8 75° 15% - - 24° 80.6° 71.9° - - 1014.0
6/27 4:20am 49 6 G 9 74° 15% - - 24° 80.6° 71.9° - - 1014.0
6/27 4:10am 51 7 G 10 73° 16% - - 24° 80.6° 71.9° - - 1014.0
6/27 4:00am 50 7 G 10 73° 16% - - 24° 80.6° 71.9° - - 1014.0
6/27 3:50am 50 7 G 10 73° 17% - - 25° 80.6° 71.9° - - 1014.0
6/27 3:40am 48 6 G 8 73° 16% - - 25° 80.6° 71.9° - - 1014.0
6/27 3:30am 52 6 G 9 73° 16% - - 25° 80.6° 71.9° - - 1014.0
6/27 3:20am 50 6 G 9 74° 16% - - 24° 80.6° 71.9° - - 1014.0
6/27 3:10am 49 6 G 9 74° 15% - - 24° 80.6° 71.9° - - 1014.0
6/27 3:00am 41 5 G 7 75° 15% - - 24° 80.6° 71.9° - - 1014.0
6/27 2:50am 51 6 G 8 73° 17% - - 25° 80.6° 71.9° - - 1014.0
6/27 2:40am 53 7 G 10 72° 17% - - 25° 80.6° 71.9° - - 1014.0
6/27 2:30am 50 7 G 10 73° 17% - - 26° 80.6° 72° - - 1014.0
6/27 2:20am 51 7 G 10 74° 15% - - 24° 80.6° 72.6° - - 1014.0
6/27 2:10am 50 7 G 10 73° 16% - - 24° 80.6° 72.6° - - 1014.0
6/27 2:00am 50 7 G 10 74° 15% - - 24° 80.6° 72.9° - - 1015.0
6/27 1:50am 52 7 G 9 74° 15% - - 23° 80.6° 73.5° - - 1015.0
6/27 1:40am 50 7 G 10 75° 14% - - 23° 80.6° 73.5° - - 1015.0
6/27 1:30am 50 8 G 10 75° 14% - - 22° 80.6° 73.5° - - 1015.0
6/27 1:20am 51 7 G 9 75° 14% - - 23° 80.6° 73.5° - - 1015.0
6/27 1:10am 51 7 G 10 74° 15% - - 23° 80.6° 73.5° - - 1015.0
6/27 1:00am 50 7 G 9 76° 14% - - 23° 80.6° 75.4° - - 1015.0
6/27 12:50am 50 8 G 11 76° 13% - - 22° 80.6° 75.4° - - 1015.0
6/27 12:40am 50 8 G 10 76° 13% - - 22° 80.6° 75.6° - - 1015.0
6/27 12:30am 51 7 G 11 77° 12% - - 21° 80.6° 75.6° - - 1015.0
6/27 12:20am 51 7 G 11 78° 12% - - 22° 80.6° 77.9° - - 1015.0
6/27 12:10am 46 6 G 9 80° 12% - - 22° 80.6° 78.6° - - 1015.0
6/27 12:00am 46 7 G 10 78° 12% - - 22° 97.8° 75.4° - - 1015.0
6/26 11:50pm 57 7 G 9 78° 13% - - 23° 97.8° 75.4° - - 1015.0
6/26 11:40pm 48 7 G 9 79° 13% - - 25° 97.8° 75.4° - - 1015.0
6/26 11:30pm 49 7 G 10 80° 14% - - 26° 97.8° 75.4° - - 1015.0
6/26 11:20pm 50 7 G 9 81° 14% - - 27° 97.8° 75.4° - - 1015.0
6/26 11:10pm 44 7 G 9 81° 15% - - 30° 97.8° 75.4° - - 1015.0
6/26 11:00pm 50 7 G 9 81° 17% - - 32° 97.8° 75.4° - - 1015.0
6/26 10:50pm 48 5 G 8 80° 20% - - 35° 97.8° 75.4° - - 1015.0
6/26 10:40pm 50 6 G 8 79° 21% - - 36° 97.8° 75.4° - - 1015.0
6/26 10:30pm 52 6 G 8 78° 22% - - 36° 97.8° 75.4° - - 1015.0
6/26 10:20pm 54 6 G 8 78° 21% - - 35° 97.8° 75.4° - - 1015.0
6/26 10:10pm 57 7 G 9 78° 19% - - 32° 97.8° 75.4° - - 1015.0
6/26 10:00pm 59 6 G 8 80° 17% - - 31° 97.8° 75.4° - - 1015.0
6/26 9:50pm 52 7 G 9 79° 17% - - 31° 97.8° 75.4° - - 1015.0
6/26 9:40pm 52 6 G 9 80° 19% - - 33° 97.8° 75.4° - - 1015.0
6/26 9:30pm 54 7 G 9 79° 19% - - 34° 97.8° 75.4° - - 1015.0
6/26 9:20pm 54 6 G 9 80° 22% - - 37° 97.8° 75.4° - - 1015.0
6/26 9:10pm 51 7 G 8 80° 24% - - 40° 97.8° 75.4° - - 1015.0
6/26 9:00pm 49 7 G 9 79° 26% - - 41° 97.8° 75.4° - - 1015.0
6/26 8:50pm 50 7 G 10 80° 26% - - 42° 97.8° 75.4° - - 1015.0
6/26 8:40pm 50 6 G 9 81° 24% - - 41° 97.8° 75.4° - - 1014.0
6/26 8:30pm 52 5 G 8 82° 24% - - 42° 97.8° 75.4° - - 1014.0
6/26 8:20pm 49 3 G 5 83° 24% - - 43° 97.8° 75.4° - - 1014.0
6/26 8:10pm 34 0 G 2 84° 26% - - 46° 97.8° 75.4° - - 1014.0
6/26 8:00pm 311 1 G 2 86° 25% - - 46° 97.8° 75.4° - - 1014.0
6/26 7:50pm 301 2 G 3 86° 24% - - 45° 97.8° 75.4° - - 1014.0
6/26 7:40pm 273 2 G 5 87° 22% - - 44° 97.8° 75.4° - - 1014.0
6/26 7:30pm 242 3 G 6 88° 20% - - 43° 97.8° 75.4° - - 1014.0
6/26 7:20pm 233 3 G 6 89° 18% - - 41° 97.8° 75.4° - - 1014.0
6/26 7:10pm 229 5 G 8 90° 17% - - 40° 97.8° 75.4° - - 1014.0
6/26 7:00pm 216 4 G 8 92° 14% - - 36° 97.8° 75.4° - - 1014.0
6/26 6:50pm 215 3 G 8 92° 16% - - 38° 97.8° 75.4° - - 1014.0
6/26 6:40pm 225 4 G 9 92° 17% - - 40° 97.8° 75.4° - - 1014.0
6/26 6:30pm 223 5 G 10 92° 17% - - 41° 97.8° 75.4° - - 1014.0
6/26 6:20pm 230 5 G 10 92° 17% - - 41° 97.8° 75.4° - - 1014.0
6/26 6:10pm 223 6 G 11 93° 16% - - 40° 97.8° 75.4° - - 1014.0
6/26 6:00pm 222 6 G 13 93° 17% - - 41° 97.8° 75.4° - - 1014.0
6/26 5:50pm 221 7 G 15 94° 16% - - 41° 97.8° 75.4° - - 1014.0
6/26 5:40pm 222 6 G 10 94° 15% - - 40° 97.8° 75.4° - - 1014.0
6/26 5:30pm 226 6 G 11 94° 17% - - 42° 97.8° 75.4° - - 1014.0
6/26 5:20pm 220 6 G 12 95° 16% - - 42° 97.8° 75.4° - - 1014.0
6/26 5:10pm 220 5 G 11 96° 15% - - 41° 97.8° 75.4° - - 1014.0
6/26 5:00pm 214 4 G 10 96° 15% - - 40° 97.8° 75.4° - - 1014.0
6/26 4:50pm 221 5 G 9 96° 13% - - 38° 97.8° 75.4° - - 1014.0
6/26 4:40pm 219 5 G 11 96° 12% - - 34° 97.8° 75.4° - - 1014.0
6/26 4:30pm 220 5 G 10 96° 10% - - 31° 97.8° 75.4° - - 1014.0
6/26 4:20pm 199 4 G 10 97° 9% - - 30° 97.7° 75.4° - - 1014.0
6/26 4:10pm 213 5 G 9 96° 11% - - 33° 96.5° 75.4° - - 1014.0
6/26 4:00pm 230 5 G 9 95° 12% - - 35° 96.3° 75.4° - - 1015.0
6/26 3:50pm 238 6 G 10 94° 13% - - 36° 96.3° 75.4° - - 1015.0
6/26 3:40pm 230 6 G 10 94° 14% - - 38° 96.3° 75.4° - - 1015.0
6/26 3:30pm 230 6 G 10 94° 15% - - 38° 96.3° 75.4° - - 1015.0
6/26 3:20pm 237 6 G 10 94° 16% - - 40° 96.3° 75.4° - - 1015.0
6/26 3:10pm 239 6 G 10 93° 18% - - 43° 96.3° 75.4° - - 1015.0
6/26 3:00pm 238 6 G 11 93° 18% - - 43° 96.3° 75.4° - - 1015.0
6/26 2:50pm 239 6 G 12 93° 20% - - 46° 96.3° 75.4° - - 1015.0
6/26 2:40pm 239 7 G 12 93° 20% - - 47° 96.3° 75.4° - - 1015.0
6/26 2:30pm 229 6 G 12 94° 20% - - 47° 96.3° 75.4° - - 1015.0
6/26 2:20pm 240 6 G 10 94° 21% - - 48° 96.3° 75.4° - - 1015.0
6/26 2:10pm 240 7 G 12 93° 22% - - 48° 96.3° 75.4° - - 1015.0
6/26 2:00pm 239 7 G 11 93° 22% - - 49° 96.3° 75.4° - - 1015.0
6/26 1:50pm 237 7 G 12 93° 23% - - 49° 96.3° 75.4° - - 1015.0
6/26 1:40pm 235 7 G 12 93° 23% - - 49° 96.3° 75.4° - - 1015.0
6/26 1:30pm 244 7 G 11 93° 22% - - 48° 96.3° 75.4° - - 1015.0
6/26 1:20pm 244 8 G 11 93° 21% - - 48° 96.3° 75.4° - - 1015.0
6/26 1:10pm 237 7 G 12 93° 20% - - 47° 96.3° 75.4° - - 1015.0
6/26 1:00pm 240 8 G 12 94° 20% - - 47° 96.3° 75.4° - - 1015.0
6/26 12:50pm 230 7 G 11 95° 18% - - 44° 96.3° 75.4° - - 1015.0
6/26 12:40pm 233 6 G 10 95° 18% - - 44° 95.7° 75.4° - - 1015.0
6/26 12:30pm 235 6 G 11 95° 17% - - 43° 95.7° 75.4° - - 1015.0
6/26 12:20pm 228 5 G 9 95° 16% - - 42° 95.6° 75.4° - - 1015.0
6/26 12:10pm 234 5 G 10 95° 16% - - 42° 95.5° 75.4° - - 1015.0
6/26 12:00pm 233 5 G 9 94° 17% - - 43° 94.7° 75.4° - - 1015.0
6/26 11:50am 233 6 G 10 94° 18% - - 44° 94.1° 75.4° - - 1015.0
6/26 11:40am 242 6 G 10 93° 20% - - 46° 93.6° 75.4° - - 1015.0
6/26 11:30am 235 7 G 10 92° 21% - - 47° 93.6° 75.4° - - 1015.0
6/26 11:20am 235 6 G 10 92° 23% - - 49° 93.6° 75.4° - - 1015.0
6/26 11:10am 238 7 G 11 92° 24% - - 49° 93.6° 75.4° - - 1015.0
6/26 11:00am 235 6 G 10 93° 18% - - 44° 93.6° 75.4° - - 1015.0
6/26 10:50am 237 6 G 10 93° 15% - - 38° 93.6° 75.4° - - 1015.0
6/26 10:40am 240 6 G 9 92° 15% - - 38° 93.1° 75.4° - - 1015.0
6/26 10:30am 236 5 G 8 92° 16% - - 39° 93.1° 75.4° - - 1015.0
6/26 10:20am 231 5 G 10 91° 17% - - 40° 93.1° 75.4° - - 1015.0
6/26 10:10am 230 5 G 8 92° 15% - - 38° 93.1° 75.4° - - 1015.0
6/26 10:00am 217 3 G 6 92° 16% - - 40° 93.1° 75.4° - - 1015.0
6/26 9:50am 228 2 G 4 91° 18% - - 42° 91.5° 75.4° - - 1015.0
6/26 9:40am 210 2 G 4 91° 18% - - 42° 91.2° 75.4° - - 1015.0
6/26 9:30am 201 3 G 5 90° 18% - - 41° 90.7° 75.4° - - 1015.0
6/26 9:20am 200 2 G 4 89° 19% - - 41° 89.7° 75.4° - - 1015.0
6/26 9:10am 141 2 G 5 88° 19% - - 41° 88.6° 75.4° - - 1015.0
6/26 9:00am 214 1 G 3 87° 18% - - 39° 87.8° 75.4° - - 1015.0
6/26 8:50am 183 2 G 4 86° 18% - - 38° 86.9° 75.4° - - 1015.0
6/26 8:40am 192 1 G 2 86° 19% - - 38° 86.9° 75.4° - - 1015.0
6/26 8:30am 174 1 G 2 86° 17% - - 37° 86.9° 75.4° - - 1015.0
6/26 8:20am 215 1 G 2 86° 16% - - 35° 86.9° 75.4° - - 1015.0
6/26 8:10am 195 1 G 3 86° 15% - - 33° 86.9° 75.4° - - 1015.0
6/26 8:00am 186 0 G 2 87° 14% - - 32° 86.9° 75.4° - - 1015.0
6/26 7:50am 37 0 G 1 85° 14% - - 31° 86.7° 75.4° - - 1015.0
6/26 7:40am 95 1 G 2 85° 14% - - 31° 86.7° 75.4° - - 1015.0
6/26 7:30am 58 1 G 2 86° 13% - - 30° 86.7° 75.4° - - 1014.0
6/26 7:20am 75 1 G 3 86° 13% - - 28° 86.4° 75.4° - - 1014.0
6/26 7:10am 350 1 G 1 86° 12% - - 28° 86.2° 75.4° - - 1014.0
6/26 7:00am 47 2 G 4 85° 12% - - 27° 85.9° 75.4° - - 1014.0
6/26 6:50am 64 3 G 5 83° 13% - - 28° 83.5° 75.4° - - 1014.0
6/26 6:40am 64 2 G 5 82° 14% - - 28° 82.5° 75.4° - - 1014.0
6/26 6:30am 58 5 G 8 82° 13% - - 26° 82.5° 75.4° - - 1014.0
6/26 6:20am 56 5 G 7 81° 14% - - 27° 82.5° 75.4° - - 1015.0
6/26 6:10am 60 4 G 7 81° 14% - - 27° 82.5° 75.4° - - 1014.0
6/26 6:00am 77 1 G 6 80° 16% - - 29° 82.5° 75.4° - - 1015.0